createdAt,value
2022-12-14T00:00:30.013Z,1006.01
2022-12-14T00:01:29.960Z,1006.00
2022-12-14T00:02:30.077Z,1005.95
2022-12-14T00:03:29.979Z,1005.95
2022-12-14T00:04:29.908Z,1005.95
2022-12-14T00:05:29.891Z,1005.97
2022-12-14T00:06:29.880Z,1006.00
2022-12-14T00:07:29.860Z,1005.97
2022-12-14T00:08:30.121Z,1006.00
2022-12-14T00:09:29.824Z,1005.98
2022-12-14T00:10:29.812Z,1005.93
2022-12-14T00:11:29.791Z,1005.92
2022-12-14T00:12:29.777Z,1005.94
2022-12-14T00:13:29.761Z,1005.91
2022-12-14T00:14:29.742Z,1005.88
2022-12-14T00:15:29.775Z,1005.89
2022-12-14T00:16:29.706Z,1005.88
2022-12-14T00:17:29.696Z,1005.87
2022-12-14T00:18:30.025Z,1005.86
2022-12-14T00:19:29.657Z,1005.84
2022-12-14T00:20:29.643Z,1005.83
2022-12-14T00:21:29.632Z,1005.85
2022-12-14T00:22:29.616Z,1005.84
2022-12-14T00:23:32.077Z,1005.83
2022-12-14T00:24:29.576Z,1005.83
2022-12-14T00:25:29.556Z,1005.80
2022-12-14T00:26:29.544Z,1005.79
2022-12-14T00:27:29.527Z,1005.79
2022-12-14T00:28:29.834Z,1005.73
2022-12-14T00:29:29.667Z,1005.74
2022-12-14T00:30:29.477Z,1005.71
2022-12-14T00:31:29.535Z,1005.72
2022-12-14T00:32:29.440Z,1005.74
2022-12-14T00:33:29.423Z,1005.73
2022-12-14T00:34:29.407Z,1005.71
2022-12-14T00:35:29.397Z,1005.69
2022-12-14T00:36:29.376Z,1005.69
2022-12-14T00:37:29.361Z,1005.67
2022-12-14T00:38:29.632Z,1005.64
2022-12-14T00:39:29.325Z,1005.66
2022-12-14T00:40:29.309Z,1005.72
2022-12-14T00:41:29.305Z,1005.67
2022-12-14T00:42:29.276Z,1005.68
2022-12-14T00:43:29.259Z,1005.67
2022-12-14T00:44:29.239Z,1005.64
2022-12-14T00:45:29.222Z,1005.61
2022-12-14T00:46:29.274Z,1005.62
2022-12-14T00:47:29.192Z,1005.60
2022-12-14T00:48:29.580Z,1005.63
2022-12-14T00:49:29.161Z,1005.66
2022-12-14T00:50:29.148Z,1005.65
2022-12-14T00:51:29.142Z,1005.70
2022-12-14T00:52:29.130Z,1005.67
2022-12-14T00:53:29.092Z,1005.65
2022-12-14T00:54:29.074Z,1005.66
2022-12-14T00:55:29.063Z,1005.66
2022-12-14T00:56:29.041Z,1005.63
2022-12-14T00:57:29.024Z,1005.62
2022-12-14T00:58:29.621Z,1005.64
2022-12-14T00:59:28.992Z,1005.59
2022-12-14T01:00:28.968Z,1005.64
2022-12-14T01:01:29.044Z,1005.62
2022-12-14T01:02:29.072Z,1005.61
2022-12-14T01:03:29.566Z,1005.61
2022-12-14T01:04:28.903Z,1005.64
2022-12-14T01:05:28.890Z,1005.62
2022-12-14T01:06:28.873Z,1005.60
2022-12-14T01:07:28.857Z,1005.63
2022-12-14T01:08:28.836Z,1005.62
2022-12-14T01:09:28.829Z,1005.57
2022-12-14T01:10:28.850Z,1005.60
2022-12-14T01:11:28.784Z,1005.58
2022-12-14T01:12:28.778Z,1005.56
2022-12-14T01:13:29.232Z,1005.57
2022-12-14T01:14:28.740Z,1005.53
2022-12-14T01:15:28.779Z,1005.52
2022-12-14T01:16:28.790Z,1005.49
2022-12-14T01:17:28.688Z,1005.53
2022-12-14T01:18:28.670Z,1005.50
2022-12-14T01:19:28.654Z,1005.49
2022-12-14T01:20:28.637Z,1005.47
2022-12-14T01:21:28.620Z,1005.44
2022-12-14T01:22:28.605Z,1005.44
2022-12-14T01:23:29.124Z,1005.44
2022-12-14T01:24:28.577Z,1005.42
2022-12-14T01:25:28.553Z,1005.43
2022-12-14T01:26:28.546Z,1005.40
2022-12-14T01:27:28.523Z,1005.43
2022-12-14T01:28:28.501Z,1005.48
2022-12-14T01:29:28.486Z,1005.46
2022-12-14T01:30:28.469Z,1005.47
2022-12-14T01:31:28.530Z,1005.44
2022-12-14T01:32:28.437Z,1005.47
2022-12-14T01:33:28.860Z,1005.44
2022-12-14T01:34:28.404Z,1005.41
2022-12-14T01:35:28.387Z,1005.45
2022-12-14T01:36:28.367Z,1005.45
2022-12-14T01:37:28.352Z,1005.40
2022-12-14T01:38:28.337Z,1005.37
2022-12-14T01:39:28.321Z,1005.32
2022-12-14T01:40:28.300Z,1005.32
2022-12-14T01:41:28.285Z,1005.31
2022-12-14T01:42:28.271Z,1005.27
2022-12-14T01:43:28.828Z,1005.30
2022-12-14T01:44:28.233Z,1005.30
2022-12-14T01:45:28.218Z,1005.29
2022-12-14T01:46:28.248Z,1005.32
2022-12-14T01:47:28.185Z,1005.30
2022-12-14T01:48:28.169Z,1005.29
2022-12-14T01:49:28.150Z,1005.27
2022-12-14T01:50:28.135Z,1005.23
2022-12-14T01:51:28.119Z,1005.22
2022-12-14T01:52:28.099Z,1005.21
2022-12-14T01:53:28.639Z,1005.24
2022-12-14T01:54:28.066Z,1005.23
2022-12-14T01:55:28.050Z,1005.24
2022-12-14T01:56:28.034Z,1005.22
2022-12-14T01:57:28.023Z,1005.24
2022-12-14T01:58:27.999Z,1005.27
2022-12-14T01:59:27.980Z,1005.22
2022-12-14T02:00:27.976Z,1005.22
2022-12-14T02:01:28.073Z,1005.24
2022-12-14T02:02:28.086Z,1005.22
2022-12-14T02:03:28.447Z,1005.22
2022-12-14T02:04:27.898Z,1005.23
2022-12-14T02:05:27.883Z,1005.22
2022-12-14T02:06:27.869Z,1005.22
2022-12-14T02:07:27.882Z,1005.27
2022-12-14T02:08:27.830Z,1005.23
2022-12-14T02:09:27.815Z,1005.19
2022-12-14T02:10:27.800Z,1005.25
2022-12-14T02:11:27.784Z,1005.25
2022-12-14T02:12:27.765Z,1005.25
2022-12-14T02:13:28.146Z,1005.17
2022-12-14T02:14:27.734Z,1005.21
2022-12-14T02:15:27.717Z,1005.17
2022-12-14T02:16:27.743Z,1005.15
2022-12-14T02:17:27.697Z,1005.18
2022-12-14T02:18:27.667Z,1005.18
2022-12-14T02:19:27.649Z,1005.15
2022-12-14T02:20:27.631Z,1005.20
2022-12-14T02:21:27.612Z,1005.22
2022-12-14T02:22:27.603Z,1005.21
2022-12-14T02:23:27.839Z,1005.23
2022-12-14T02:24:27.559Z,1005.23
2022-12-14T02:25:27.548Z,1005.19
2022-12-14T02:26:27.530Z,1005.22
2022-12-14T02:27:27.548Z,1005.23
2022-12-14T02:28:27.501Z,1005.21
2022-12-14T02:29:27.482Z,1005.20
2022-12-14T02:30:27.463Z,1005.21
2022-12-14T02:31:27.464Z,1005.18
2022-12-14T02:32:27.451Z,1005.17
2022-12-14T02:33:27.800Z,1005.21
2022-12-14T02:34:27.394Z,1005.15
2022-12-14T02:35:27.379Z,1005.14
2022-12-14T02:36:27.363Z,1005.13
2022-12-14T02:37:27.342Z,1005.10
2022-12-14T02:38:27.336Z,1005.12
2022-12-14T02:39:27.316Z,1005.13
2022-12-14T02:40:27.296Z,1005.13
2022-12-14T02:41:27.278Z,1005.14
2022-12-14T02:42:27.268Z,1005.17
2022-12-14T02:43:27.727Z,1005.14
2022-12-14T02:44:27.230Z,1005.17
2022-12-14T02:45:27.253Z,1005.12
2022-12-14T02:46:27.260Z,1005.14
2022-12-14T02:47:27.179Z,1005.17
2022-12-14T02:48:27.156Z,1005.13
2022-12-14T02:49:27.144Z,1005.11
2022-12-14T02:50:27.129Z,1005.10
2022-12-14T02:51:27.110Z,1005.09
2022-12-14T02:52:27.091Z,1005.10
2022-12-14T02:53:27.435Z,1005.14
2022-12-14T02:54:27.068Z,1005.10
2022-12-14T02:55:27.046Z,1005.12
2022-12-14T02:56:27.024Z,1005.16
2022-12-14T02:57:27.009Z,1005.16
2022-12-14T02:58:27.007Z,1005.15
2022-12-14T02:59:26.973Z,1005.17
2022-12-14T03:00:26.989Z,1005.14
2022-12-14T03:01:27.076Z,1005.13
2022-12-14T03:02:26.995Z,1005.08
2022-12-14T03:03:27.323Z,1005.05
2022-12-14T03:04:26.890Z,1005.04
2022-12-14T03:05:26.874Z,1005.01
2022-12-14T03:06:26.858Z,1005.05
2022-12-14T03:07:26.839Z,1005.03
2022-12-14T03:08:26.821Z,1005.00
2022-12-14T03:09:26.808Z,1005.01
2022-12-14T03:10:26.788Z,1004.99
2022-12-14T03:11:26.776Z,1005.01
2022-12-14T03:12:26.757Z,1004.97
2022-12-14T03:13:27.097Z,1005.00
2022-12-14T03:14:26.726Z,1004.99
2022-12-14T03:15:26.728Z,1004.98
2022-12-14T03:16:26.735Z,1004.99
2022-12-14T03:17:26.674Z,1005.02
2022-12-14T03:18:26.656Z,1004.98
2022-12-14T03:19:26.643Z,1004.99
2022-12-14T03:20:26.625Z,1005.00
2022-12-14T03:21:26.605Z,1004.98
2022-12-14T03:22:26.641Z,1004.97
2022-12-14T03:23:26.979Z,1004.94
2022-12-14T03:24:26.557Z,1004.94
2022-12-14T03:25:26.537Z,1004.92
2022-12-14T03:26:26.522Z,1004.91
2022-12-14T03:27:26.508Z,1004.88
2022-12-14T03:28:26.493Z,1004.91
2022-12-14T03:29:26.469Z,1004.88
2022-12-14T03:30:58.392Z,1004.87
2022-12-14T03:31:26.511Z,1004.87
2022-12-14T03:32:26.418Z,1004.86
2022-12-14T03:33:26.756Z,1004.85
2022-12-14T03:34:26.390Z,1004.83
2022-12-14T03:35:26.372Z,1004.82
2022-12-14T03:36:26.353Z,1004.81
2022-12-14T03:37:26.334Z,1004.79
2022-12-14T03:38:26.316Z,1004.79
2022-12-14T03:39:26.301Z,1004.79
2022-12-14T03:40:26.283Z,1004.78
2022-12-14T03:41:26.267Z,1004.76
2022-12-14T03:42:26.249Z,1004.79
2022-12-14T03:43:26.619Z,1004.76
2022-12-14T03:44:26.217Z,1004.81
2022-12-14T03:45:26.240Z,1004.77
2022-12-14T03:46:26.183Z,1004.74
2022-12-14T03:47:26.167Z,1004.74
2022-12-14T03:48:26.147Z,1004.70
2022-12-14T03:49:26.129Z,1004.72
2022-12-14T03:50:26.116Z,1004.69
2022-12-14T03:51:26.098Z,1004.66
2022-12-14T03:52:26.081Z,1004.69
2022-12-14T03:53:26.472Z,1004.65
2022-12-14T03:54:26.049Z,1004.66
2022-12-14T03:55:26.031Z,1004.66
2022-12-14T03:56:26.014Z,1004.65
2022-12-14T03:57:25.997Z,1004.63
2022-12-14T03:58:25.994Z,1004.59
2022-12-14T03:59:25.960Z,1004.59
2022-12-14T04:00:25.951Z,1004.61
2022-12-14T04:01:26.211Z,1004.60
2022-12-14T04:02:26.019Z,1004.58
2022-12-14T04:03:26.206Z,1004.58
2022-12-14T04:04:25.877Z,1004.58
2022-12-14T04:05:25.857Z,1004.56
2022-12-14T04:06:26.577Z,1004.54
2022-12-14T04:07:25.830Z,1004.51
2022-12-14T04:08:25.811Z,1004.51
2022-12-14T04:09:25.792Z,1004.46
2022-12-14T04:10:25.776Z,1004.47
2022-12-14T04:11:25.759Z,1004.48
2022-12-14T04:12:25.744Z,1004.49
2022-12-14T04:13:26.182Z,1004.48
2022-12-14T04:14:25.707Z,1004.52
2022-12-14T04:15:25.689Z,1004.47
2022-12-14T04:16:25.715Z,1004.49
2022-12-14T04:17:25.654Z,1004.52
2022-12-14T04:18:25.640Z,1004.51
2022-12-14T04:19:25.621Z,1004.48
2022-12-14T04:20:25.608Z,1004.49
2022-12-14T04:21:25.616Z,1004.47
2022-12-14T04:22:25.573Z,1004.47
2022-12-14T04:23:25.917Z,1004.45
2022-12-14T04:24:25.533Z,1004.42
2022-12-14T04:25:25.524Z,1004.39
2022-12-14T04:26:25.522Z,1004.41
2022-12-14T04:27:25.487Z,1004.42
2022-12-14T04:28:25.468Z,1004.40
2022-12-14T04:29:25.451Z,1004.38
2022-12-14T04:30:25.435Z,1004.41
2022-12-14T04:31:25.479Z,1004.37
2022-12-14T04:32:25.423Z,1004.35
2022-12-14T04:33:25.736Z,1004.30
2022-12-14T04:34:25.369Z,1004.32
2022-12-14T04:35:25.351Z,1004.26
2022-12-14T04:36:25.335Z,1004.26
2022-12-14T04:37:25.324Z,1004.25
2022-12-14T04:38:25.300Z,1004.20
2022-12-14T04:39:25.284Z,1004.20
2022-12-14T04:40:25.262Z,1004.19
2022-12-14T04:41:25.248Z,1004.18
2022-12-14T04:42:25.233Z,1004.22
2022-12-14T04:43:25.493Z,1004.25
2022-12-14T04:44:25.217Z,1004.21
2022-12-14T04:45:25.179Z,1004.17
2022-12-14T04:46:25.167Z,1004.20
2022-12-14T04:47:25.147Z,1004.18
2022-12-14T04:48:25.131Z,1004.17
2022-12-14T04:49:25.112Z,1004.14
2022-12-14T04:50:25.092Z,1004.09
2022-12-14T04:51:25.078Z,1004.11
2022-12-14T04:52:25.062Z,1004.08
2022-12-14T04:53:25.504Z,1004.03
2022-12-14T04:54:25.027Z,1004.03
2022-12-14T04:55:25.005Z,1003.98
2022-12-14T04:56:24.987Z,1003.96
2022-12-14T04:57:25.203Z,1003.93
2022-12-14T04:58:24.956Z,1003.95
2022-12-14T04:59:24.942Z,1003.90
2022-12-14T05:00:24.923Z,1003.86
2022-12-14T05:01:24.992Z,1003.88
2022-12-14T05:02:24.962Z,1003.91
2022-12-14T05:03:25.183Z,1003.87
2022-12-14T05:04:24.857Z,1003.90
2022-12-14T05:05:24.842Z,1003.87
2022-12-14T05:06:24.821Z,1003.86
2022-12-14T05:07:24.808Z,1003.88
2022-12-14T05:08:24.786Z,1003.88
2022-12-14T05:09:24.771Z,1003.84
2022-12-14T05:10:24.748Z,1003.82
2022-12-14T05:11:53.255Z,1003.88
2022-12-14T05:12:24.715Z,1003.85
2022-12-14T05:13:24.922Z,1003.84
2022-12-14T05:14:24.682Z,1003.83
2022-12-14T05:15:24.668Z,1003.83
2022-12-14T05:16:24.709Z,1003.81
2022-12-14T05:17:24.635Z,1003.82
2022-12-14T05:18:24.613Z,1003.85
2022-12-14T05:19:24.600Z,1003.84
2022-12-14T05:20:24.585Z,1003.84
2022-12-14T05:21:24.588Z,1003.80
2022-12-14T05:22:24.548Z,1003.79
2022-12-14T05:23:24.915Z,1003.74
2022-12-14T05:24:24.513Z,1003.73
2022-12-14T05:25:24.498Z,1003.74
2022-12-14T05:26:24.478Z,1003.68
2022-12-14T05:27:24.457Z,1003.69
2022-12-14T05:28:24.443Z,1003.66
2022-12-14T05:29:24.429Z,1003.64
2022-12-14T05:30:24.474Z,1003.64
2022-12-14T05:31:24.394Z,1003.71
2022-12-14T05:32:24.378Z,1003.66
2022-12-14T05:33:24.479Z,1003.68
2022-12-14T05:34:24.356Z,1003.65
2022-12-14T05:35:24.326Z,1003.64
2022-12-14T05:36:24.306Z,1003.61
2022-12-14T05:37:24.290Z,1003.60
2022-12-14T05:38:24.273Z,1003.57
2022-12-14T05:39:24.263Z,1003.56
2022-12-14T05:40:24.237Z,1003.58
2022-12-14T05:41:24.221Z,1003.57
2022-12-14T05:42:24.210Z,1003.56
2022-12-14T05:43:24.329Z,1003.56
2022-12-14T05:44:24.170Z,1003.56
2022-12-14T05:45:24.152Z,1003.52
2022-12-14T05:46:24.198Z,1003.55
2022-12-14T05:47:24.119Z,1003.51
2022-12-14T05:48:24.099Z,1003.49
2022-12-14T05:49:24.086Z,1003.49
2022-12-14T05:50:24.069Z,1003.47
2022-12-14T05:51:24.048Z,1003.44
2022-12-14T05:52:24.033Z,1003.47
2022-12-14T05:53:24.191Z,1003.40
2022-12-14T05:54:23.999Z,1003.38
2022-12-14T05:55:23.981Z,1003.38
2022-12-14T05:56:23.963Z,1003.37
2022-12-14T05:57:23.949Z,1003.35
2022-12-14T05:58:23.927Z,1003.35
2022-12-14T05:59:23.913Z,1003.35
2022-12-14T06:00:23.893Z,1003.36
2022-12-14T06:01:23.942Z,1003.31
2022-12-14T06:02:23.946Z,1003.33
2022-12-14T06:03:23.851Z,1003.30
2022-12-14T06:04:23.884Z,1003.30
2022-12-14T06:05:23.821Z,1003.26
2022-12-14T06:06:23.793Z,1003.29
2022-12-14T06:07:27.831Z,1003.28
2022-12-14T06:08:23.783Z,1003.28
2022-12-14T06:09:23.753Z,1003.31
2022-12-14T06:10:23.723Z,1003.32
2022-12-14T06:11:23.707Z,1003.31
2022-12-14T06:12:23.688Z,1003.32
2022-12-14T06:13:23.683Z,1003.29
2022-12-14T06:14:23.660Z,1003.27
2022-12-14T06:15:23.639Z,1003.27
2022-12-14T06:16:23.693Z,1003.30
2022-12-14T06:17:23.601Z,1003.25
2022-12-14T06:18:23.588Z,1003.25
2022-12-14T06:19:23.573Z,1003.18
2022-12-14T06:20:23.554Z,1003.19
2022-12-14T06:21:23.543Z,1003.18
2022-12-14T06:22:23.520Z,1003.19
2022-12-14T06:23:23.509Z,1003.17
2022-12-14T06:24:23.497Z,1003.20
2022-12-14T06:25:23.468Z,1003.17
2022-12-14T06:26:23.444Z,1003.22
2022-12-14T06:27:23.427Z,1003.21
2022-12-14T06:28:23.415Z,1003.20
2022-12-14T06:29:23.401Z,1003.26
2022-12-14T06:30:23.376Z,1003.20
2022-12-14T06:31:23.389Z,1003.21
2022-12-14T06:32:23.368Z,1003.22
2022-12-14T06:33:23.344Z,1003.20
2022-12-14T06:34:28.153Z,1003.17
2022-12-14T06:35:23.296Z,1003.17
2022-12-14T06:36:23.273Z,1003.16
2022-12-14T06:37:23.258Z,1003.16
2022-12-14T06:38:23.260Z,1003.15
2022-12-14T06:39:23.225Z,1003.14
2022-12-14T06:40:23.201Z,1003.12
2022-12-14T06:41:23.192Z,1003.15
2022-12-14T06:42:23.174Z,1003.13
2022-12-14T06:43:23.154Z,1003.11
2022-12-14T06:44:23.133Z,1003.11
2022-12-14T06:45:23.120Z,1003.10
2022-12-14T06:46:23.154Z,1003.10
2022-12-14T06:47:23.085Z,1003.06
2022-12-14T06:48:23.068Z,1003.07
2022-12-14T06:49:23.043Z,1003.02
2022-12-14T06:50:23.042Z,1003.04
2022-12-14T06:51:23.021Z,1002.98
2022-12-14T06:52:26.702Z,1003.00
2022-12-14T06:53:22.978Z,1003.03
2022-12-14T06:54:22.962Z,1003.00
2022-12-14T06:55:22.953Z,1003.01
2022-12-14T06:56:22.929Z,1003.03
2022-12-14T06:57:22.911Z,1003.00
2022-12-14T06:58:24.858Z,1003.01
2022-12-14T06:59:22.892Z,1003.03
2022-12-14T07:00:22.862Z,1003.01
2022-12-14T07:01:22.950Z,1003.03
2022-12-14T07:02:23.020Z,1003.06
2022-12-14T07:03:22.837Z,1003.01
2022-12-14T07:04:22.793Z,1003.03
2022-12-14T07:05:22.772Z,1002.97
2022-12-14T07:06:22.759Z,1002.98
2022-12-14T07:07:22.736Z,1002.96
2022-12-14T07:08:22.721Z,1002.95
2022-12-14T07:09:22.703Z,1002.92
2022-12-14T07:10:22.686Z,1002.92
2022-12-14T07:11:22.668Z,1002.90
2022-12-14T07:12:22.675Z,1002.92
2022-12-14T07:13:22.629Z,1002.89
2022-12-14T07:14:22.619Z,1002.89
2022-12-14T07:15:22.599Z,1002.89
2022-12-14T07:16:22.655Z,1002.94
2022-12-14T07:17:22.573Z,1002.90
2022-12-14T07:18:22.548Z,1002.90
2022-12-14T07:19:22.540Z,1002.91
2022-12-14T07:20:22.515Z,1002.89
2022-12-14T07:21:22.496Z,1002.89
2022-12-14T07:22:22.482Z,1002.85
2022-12-14T07:23:27.717Z,1002.85
2022-12-14T07:24:22.447Z,1002.85
2022-12-14T07:25:22.436Z,1002.83
2022-12-14T07:26:22.411Z,1002.83
2022-12-14T07:27:22.395Z,1002.81
2022-12-14T07:28:22.375Z,1002.84
2022-12-14T07:29:22.356Z,1002.81
2022-12-14T07:30:22.344Z,1002.83
2022-12-14T07:31:22.365Z,1002.85
2022-12-14T07:32:22.306Z,1002.84
2022-12-14T07:33:22.286Z,1002.86
2022-12-14T07:34:22.274Z,1002.82
2022-12-14T07:35:22.259Z,1002.84
2022-12-14T07:36:22.233Z,1002.82
2022-12-14T07:37:22.230Z,1002.80
2022-12-14T07:38:22.202Z,1002.81
2022-12-14T07:39:22.187Z,1002.79
2022-12-14T07:40:22.169Z,1002.78
2022-12-14T07:41:23.246Z,1002.77
2022-12-14T07:42:22.133Z,1002.77
2022-12-14T07:43:22.155Z,1002.77
2022-12-14T07:44:22.096Z,1002.75
2022-12-14T07:45:22.077Z,1002.76
2022-12-14T07:46:22.138Z,1002.74
2022-12-14T07:47:22.045Z,1002.76
2022-12-14T07:48:22.030Z,1002.72
2022-12-14T07:49:22.025Z,1002.68
2022-12-14T07:50:21.999Z,1002.67
2022-12-14T07:51:21.982Z,1002.63
2022-12-14T07:52:21.955Z,1002.65
2022-12-14T07:53:21.941Z,1002.67
2022-12-14T07:54:21.922Z,1002.65
2022-12-14T07:55:21.908Z,1002.62
2022-12-14T07:56:21.889Z,1002.65
2022-12-14T07:57:21.869Z,1002.64
2022-12-14T07:58:21.853Z,1002.60
2022-12-14T07:59:21.847Z,1002.64
2022-12-14T08:00:21.820Z,1002.68
2022-12-14T08:01:21.841Z,1002.70
2022-12-14T08:02:21.854Z,1002.69
2022-12-14T08:03:21.769Z,1002.68
2022-12-14T08:04:21.792Z,1002.67
2022-12-14T08:05:21.732Z,1002.67
2022-12-14T08:06:21.714Z,1002.66
2022-12-14T08:07:21.700Z,1002.66
2022-12-14T08:08:21.680Z,1002.65
2022-12-14T08:09:21.668Z,1002.66
2022-12-14T08:10:21.646Z,1002.68
2022-12-14T08:11:21.629Z,1002.63
2022-12-14T08:12:21.609Z,1002.65
2022-12-14T08:13:21.593Z,1002.65
2022-12-14T08:14:21.583Z,1002.67
2022-12-14T08:15:21.561Z,1002.66
2022-12-14T08:16:21.589Z,1002.62
2022-12-14T08:17:21.522Z,1002.63
2022-12-14T08:18:21.510Z,1002.64
2022-12-14T08:19:21.494Z,1002.62
2022-12-14T08:20:21.475Z,1002.62
2022-12-14T08:21:21.455Z,1002.59
2022-12-14T08:22:21.444Z,1002.58
2022-12-14T08:23:21.423Z,1002.57
2022-12-14T08:24:21.401Z,1002.55
2022-12-14T08:25:21.384Z,1002.57
2022-12-14T08:26:21.366Z,1002.57
2022-12-14T08:27:21.352Z,1002.59
2022-12-14T08:28:21.331Z,1002.65
2022-12-14T08:29:21.328Z,1002.62
2022-12-14T08:30:21.295Z,1002.59
2022-12-14T08:31:21.323Z,1002.59
2022-12-14T08:32:21.261Z,1002.63
2022-12-14T08:33:21.299Z,1002.62
2022-12-14T08:34:21.226Z,1002.62
2022-12-14T08:35:21.213Z,1002.59
2022-12-14T08:36:21.218Z,1002.60
2022-12-14T08:37:21.173Z,1002.60
2022-12-14T08:38:21.159Z,1002.55
2022-12-14T08:39:21.146Z,1002.55
2022-12-14T08:40:21.127Z,1002.53
2022-12-14T08:41:21.104Z,1002.58
2022-12-14T08:42:21.094Z,1002.49
2022-12-14T08:43:24.974Z,1002.50
2022-12-14T08:44:21.057Z,1002.46
2022-12-14T08:45:21.041Z,1002.49
2022-12-14T08:46:21.045Z,1002.47
2022-12-14T08:47:21.005Z,1002.50
2022-12-14T08:48:20.997Z,1002.45
2022-12-14T08:49:20.961Z,1002.47
2022-12-14T08:50:20.950Z,1002.44
2022-12-14T08:51:20.933Z,1002.39
2022-12-14T08:52:20.911Z,1002.43
2022-12-14T08:53:20.897Z,1002.38
2022-12-14T08:54:20.880Z,1002.40
2022-12-14T08:55:25.728Z,1002.40
2022-12-14T08:56:20.846Z,1002.35
2022-12-14T08:57:20.829Z,1002.32
2022-12-14T08:58:20.813Z,1002.32
2022-12-14T08:59:51.965Z,1002.34
2022-12-14T09:00:20.777Z,1002.32
2022-12-14T09:01:20.891Z,1002.34
2022-12-14T09:02:20.898Z,1002.35
2022-12-14T09:03:20.774Z,1002.30
2022-12-14T09:04:20.706Z,1002.25
2022-12-14T09:05:20.695Z,1002.29
2022-12-14T09:06:20.680Z,1002.27
2022-12-14T09:07:20.669Z,1002.28
2022-12-14T09:08:20.638Z,1002.29
2022-12-14T09:09:20.622Z,1002.31
2022-12-14T09:10:20.614Z,1002.30
2022-12-14T09:11:20.590Z,1002.33
2022-12-14T09:12:20.600Z,1002.31
2022-12-14T09:13:20.570Z,1002.34
2022-12-14T09:14:20.538Z,1002.36
2022-12-14T09:15:20.522Z,1002.33
2022-12-14T09:16:20.607Z,1002.38
2022-12-14T09:17:20.487Z,1002.33
2022-12-14T09:18:20.471Z,1002.36
2022-12-14T09:19:20.454Z,1002.33
2022-12-14T09:20:20.453Z,1002.33
2022-12-14T09:21:20.417Z,1002.30
2022-12-14T09:22:21.558Z,1002.29
2022-12-14T09:23:20.386Z,1002.30
2022-12-14T09:24:20.369Z,1002.30
2022-12-14T09:25:20.352Z,1002.27
2022-12-14T09:26:20.338Z,1002.26
2022-12-14T09:27:20.384Z,1002.26
2022-12-14T09:28:20.300Z,1002.17
2022-12-14T09:29:20.285Z,1002.22
2022-12-14T09:30:26.200Z,1002.21
2022-12-14T09:31:20.281Z,1002.21
2022-12-14T09:32:20.394Z,1002.19
2022-12-14T09:33:20.214Z,1002.17
2022-12-14T09:34:20.201Z,1002.20
2022-12-14T09:35:20.188Z,1002.19
2022-12-14T09:36:20.167Z,1002.17
2022-12-14T09:37:20.293Z,1002.15
2022-12-14T09:38:20.134Z,1002.15
2022-12-14T09:39:20.118Z,1002.11
2022-12-14T09:40:20.171Z,1002.12
2022-12-14T09:41:20.085Z,1002.11
2022-12-14T09:42:20.116Z,1002.09
2022-12-14T09:43:20.118Z,1002.08
2022-12-14T09:44:20.032Z,1002.02
2022-12-14T09:45:20.017Z,1002.02
2022-12-14T09:46:20.056Z,1002.02
2022-12-14T09:47:19.981Z,1002.02
2022-12-14T09:48:19.966Z,1001.98
2022-12-14T09:49:19.950Z,1002.00
2022-12-14T09:50:20.051Z,1001.96
2022-12-14T09:51:19.968Z,1001.96
2022-12-14T09:52:19.898Z,1001.96
2022-12-14T09:53:19.881Z,1001.97
2022-12-14T09:54:19.869Z,1001.95
2022-12-14T09:55:19.852Z,1001.95
2022-12-14T09:56:19.841Z,1001.94
2022-12-14T09:57:19.816Z,1001.91
2022-12-14T09:58:19.801Z,1001.94
2022-12-14T09:59:19.782Z,1001.90
2022-12-14T10:00:19.884Z,1001.87
2022-12-14T10:01:19.826Z,1001.86
2022-12-14T10:02:30.950Z,1001.88
2022-12-14T10:03:19.865Z,1001.86
2022-12-14T10:04:19.756Z,1001.86
2022-12-14T10:05:19.685Z,1001.86
2022-12-14T10:06:19.667Z,1001.90
2022-12-14T10:07:19.651Z,1001.85
2022-12-14T10:08:19.630Z,1001.84
2022-12-14T10:09:19.623Z,1001.84
2022-12-14T10:10:19.607Z,1001.81
2022-12-14T10:11:19.584Z,1001.77
2022-12-14T10:12:19.570Z,1001.76
2022-12-14T10:13:19.549Z,1001.76
2022-12-14T10:14:19.537Z,1001.76
2022-12-14T10:15:19.523Z,1001.74
2022-12-14T10:16:19.551Z,1001.70
2022-12-14T10:17:19.486Z,1001.68
2022-12-14T10:18:41.380Z,1001.68
2022-12-14T10:19:19.453Z,1001.61
2022-12-14T10:20:19.436Z,1001.62
2022-12-14T10:21:19.423Z,1001.58
2022-12-14T10:22:19.415Z,1001.59
2022-12-14T10:23:22.793Z,1001.60
2022-12-14T10:24:19.373Z,1001.58
2022-12-14T10:25:19.357Z,1001.59
2022-12-14T10:26:19.336Z,1001.55
2022-12-14T10:27:19.322Z,1001.53
2022-12-14T10:28:19.303Z,1001.56
2022-12-14T10:29:19.315Z,1001.53
2022-12-14T10:30:19.276Z,1001.50
2022-12-14T10:31:19.289Z,1001.49
2022-12-14T10:32:19.240Z,1001.49
2022-12-14T10:33:19.221Z,1001.47
2022-12-14T10:34:19.210Z,1001.49
2022-12-14T10:35:19.197Z,1001.47
2022-12-14T10:36:19.174Z,1001.45
2022-12-14T10:37:19.156Z,1001.43
2022-12-14T10:38:19.143Z,1001.41
2022-12-14T10:39:19.124Z,1001.47
2022-12-14T10:40:29.150Z,1001.43
2022-12-14T10:41:19.092Z,1001.43
2022-12-14T10:42:19.073Z,1001.45
2022-12-14T10:43:19.072Z,1001.46
2022-12-14T10:44:19.042Z,1001.44
2022-12-14T10:45:42.998Z,1001.43
2022-12-14T10:46:19.101Z,1001.45
2022-12-14T10:47:19.508Z,1001.40
2022-12-14T10:48:18.977Z,1001.37
2022-12-14T10:49:18.963Z,1001.37
2022-12-14T10:50:18.945Z,1001.37
2022-12-14T10:51:18.926Z,1001.39
2022-12-14T10:52:18.909Z,1001.36
2022-12-14T10:53:18.893Z,1001.40
2022-12-14T10:54:18.878Z,1001.34
2022-12-14T10:55:18.860Z,1001.33
2022-12-14T10:56:18.974Z,1001.34
2022-12-14T10:57:18.831Z,1001.35
2022-12-14T10:58:18.807Z,1001.35
2022-12-14T10:59:18.796Z,1001.34
2022-12-14T11:00:24.121Z,1001.34
2022-12-14T11:01:18.919Z,1001.31
2022-12-14T11:02:18.966Z,1001.29
2022-12-14T11:03:18.785Z,1001.29
2022-12-14T11:04:18.712Z,1001.28
2022-12-14T11:05:18.699Z,1001.31
2022-12-14T11:06:18.681Z,1001.28
2022-12-14T11:07:18.663Z,1001.30
2022-12-14T11:08:18.648Z,1001.25
2022-12-14T11:09:18.628Z,1001.23
2022-12-14T11:10:18.629Z,1001.23
2022-12-14T11:11:19.528Z,1001.24
2022-12-14T11:12:18.678Z,1001.24
2022-12-14T11:13:18.562Z,1001.20
2022-12-14T11:14:18.548Z,1001.18
2022-12-14T11:15:18.532Z,1001.16
2022-12-14T11:16:18.643Z,1001.12
2022-12-14T11:17:18.657Z,1001.06
2022-12-14T11:18:18.521Z,1001.03
2022-12-14T11:19:18.470Z,1001.03
2022-12-14T11:20:18.455Z,1001.00
2022-12-14T11:21:18.430Z,1000.97
2022-12-14T11:22:22.206Z,1000.94
2022-12-14T11:23:18.403Z,1000.94
2022-12-14T11:24:18.387Z,1000.86
2022-12-14T11:25:18.369Z,1000.84
2022-12-14T11:26:18.357Z,1000.79
2022-12-14T11:27:18.341Z,1000.83
2022-12-14T11:28:18.319Z,1000.82
2022-12-14T11:29:18.303Z,1000.79
2022-12-14T11:30:18.286Z,1000.77
2022-12-14T11:31:18.308Z,1000.74
2022-12-14T11:32:18.256Z,1000.77
2022-12-14T11:33:18.236Z,1000.80
2022-12-14T11:34:21.975Z,1000.79
2022-12-14T11:35:18.208Z,1000.78
2022-12-14T11:36:18.195Z,1000.79
2022-12-14T11:37:18.230Z,1000.76
2022-12-14T11:38:18.158Z,1000.76
2022-12-14T11:39:18.141Z,1000.78
2022-12-14T11:40:18.125Z,1000.80
2022-12-14T11:41:18.107Z,1000.81
2022-12-14T11:42:18.131Z,1000.78
2022-12-14T11:43:18.075Z,1000.79
2022-12-14T11:44:18.058Z,1000.76
2022-12-14T11:45:18.043Z,1000.76
2022-12-14T11:46:18.076Z,1000.78
2022-12-14T11:47:18.011Z,1000.80
2022-12-14T11:48:17.994Z,1000.79
2022-12-14T11:49:17.977Z,1000.82
2022-12-14T11:50:17.961Z,1000.77
2022-12-14T11:51:17.947Z,1000.75
2022-12-14T11:52:17.930Z,1000.77
2022-12-14T11:53:17.915Z,1000.76
2022-12-14T11:54:17.899Z,1000.73
2022-12-14T11:55:23.043Z,1000.73
2022-12-14T11:56:17.870Z,1000.75
2022-12-14T11:57:17.845Z,1000.72
2022-12-14T11:58:17.833Z,1000.75
2022-12-14T11:59:17.813Z,1000.77
2022-12-14T12:00:17.801Z,1000.74
2022-12-14T12:01:17.836Z,1000.75
2022-12-14T12:02:17.917Z,1000.75
2022-12-14T12:03:17.811Z,1000.71
2022-12-14T12:04:17.736Z,1000.72
2022-12-14T12:05:17.718Z,1000.70